Hordafor III — LLVC — position and weather

sailwx.info

Track history (hours):
 
Tides and Currents Weather Stations Pressure Air Temp Water Temp Dewpoint Dewpoint Depression Visibility Wind Speed Wind Dir Waves Ship Positions

Hordafor III

Last reported at 2017-Feb-25 13:34 UTC. Time now 2017-Feb-25 13:54 UTC.
Position N 63°14' E 007°54'.

Length 50 m; draft 6 m.

Type: Cargo ship. MMSI: 258044000.

Date/timePositionNaut miles runAvg speedWind from/ knotsBaromVisibWave heightAir tempDewpointWater temp
2017-Feb-25 13:34N 63°14' E 007°54'1 1.4
2017-Feb-25 12:33N 63°15' E 007°51'0 0.1
2017-Feb-25 11:34N 63°15' E 007°51'0 0.2
2017-Feb-25 10:33N 63°15' E 007°51'0 0.1
2017-Feb-25 09:33N 63°15' E 007°51'0 0.0
2017-Feb-25 08:33N 63°15' E 007°51'0 0.0
2017-Feb-25 07:32N 63°15' E 007°51'0 0.0
2017-Feb-25 06:33N 63°15' E 007°51'0 0.0
2017-Feb-25 05:33N 63°15' E 007°51'0 0.0
2017-Feb-25 04:34N 63°15' E 007°51'0 0.0
2017-Feb-25 03:33N 63°15' E 007°51'0 0.0
2017-Feb-25 02:33N 63°15' E 007°51'0 0.0
2017-Feb-25 01:33N 63°15' E 007°51'1 0.8
2017-Feb-25 00:34N 63°15' E 007°52'1010.0
2017-Feb-24 23:33N 63°08' E 007°36'6 6.3
2017-Feb-24 22:33N 63°03' E 007°26'0 0.3
2017-Feb-24 21:34N 63°03' E 007°27'0 0.0
2017-Feb-24 20:34N 63°03' E 007°27'2 1.8
2017-Feb-24 19:34N 63°03' E 007°23'9 8.8
2017-Feb-24 18:33N 63°07' E 007°40'2 1.7
2017-Feb-24 17:34N 63°05' E 007°40'0 0.0
2017-Feb-24 16:33N 63°05' E 007°40'0 0.0
2017-Feb-24 15:33N 63°05' E 007°40'0 0.4
2017-Feb-24 14:34N 63°05' E 007°41'0 0.4
2017-Feb-24 13:33N 63°05' E 007°40'0 0.0
2017-Feb-24 12:34N 63°05' E 007°40'0 0.0
2017-Feb-24 11:33N 63°05' E 007°40'0 0.0
2017-Feb-24 10:33N 63°05' E 007°40'0 0.0
2017-Feb-24 09:34N 63°05' E 007°40'0 0.0
2017-Feb-24 08:34N 63°05' E 007°40'2 1.6
2017-Feb-24 07:34N 63°04' E 007°41'1 1.0
2017-Feb-24 06:34N 63°03' E 007°41'1 1.4
2017-Feb-24 05:33N 63°04' E 007°41'8 7.7
2017-Feb-24 04:33N 63°11' E 007°48'9 8.5
2017-Feb-24 03:33N 63°15' E 008°05'8 8.4
2017-Feb-24 02:33N 63°21' E 008°18'8 8.0
2017-Feb-24 01:33N 63°29' E 008°13'8 8.2
2017-Feb-24 00:33N 63°37' E 008°14'8 8.4
2017-Feb-23 23:33N 63°43' E 008°27'3 3.0
2017-Feb-23 22:34N 63°43' E 008°34'0 0.0
2017-Feb-23 21:33N 63°43' E 008°34'0 0.0
2017-Feb-23 20:33N 63°43' E 008°34'0 0.0
2017-Feb-23 19:33N 63°43' E 008°34'0 0.0
2017-Feb-23 18:33N 63°43' E 008°34'2 2.5
2017-Feb-23 17:33N 63°43' E 008°28'9 9.0
2017-Feb-23 16:33N 63°37' E 008°13'9 8.5
2017-Feb-23 15:33N 63°29' E 008°13'9 9.1
2017-Feb-23 14:33N 63°20' E 008°17'1010.6
2017-Feb-23 13:34N 63°14' E 007°58'1010.5
2017-Feb-23 12:34N 63°08' E 007°38'8 8.1
2017-Feb-23 11:33N 63°03' E 007°24'1 1.1
2017-Feb-23 10:33N 63°03' E 007°27'0 0.0
2017-Feb-23 09:33N 63°03' E 007°27'0 0.0
2017-Feb-23 08:34N 63°03' E 007°27'0 0.0
2017-Feb-23 07:33N 63°03' E 007°27'0 0.0
2017-Feb-23 06:34N 63°03' E 007°27'0 0.0
2017-Feb-23 05:34N 63°03' E 007°27'2 2.0
2017-Feb-23 04:34N 63°03' E 007°22'7 7.0
2017-Feb-23 03:33N 63°07' E 007°35'8 7.8
2017-Feb-23 02:34N 63°11' E 007°50'8 7.8
2017-Feb-23 01:32N 63°15' E 008°05'8 7.8
2017-Feb-23 00:33N 63°21' E 008°18'8 8.5
2017-Feb-22 23:33N 63°29' E 008°13'9 8.8
2017-Feb-22 22:33N 63°38' E 008°14'8 8.0
2017-Feb-22 21:33N 63°43' E 008°27'3 2.9
2017-Feb-22 20:33N 63°43' E 008°34'0 0.0
2017-Feb-22 19:33N 63°43' E 008°34'0 0.0
2017-Feb-22 18:33N 63°43' E 008°34'0 0.0
2017-Feb-22 17:34N 63°43' E 008°34'0 0.0
2017-Feb-22 16:33N 63°43' E 008°34'5 5.5
2017-Feb-22 15:33N 63°42' E 008°22'9 8.8
2017-Feb-22 14:33N 63°34' E 008°14'1110.7
2017-Feb-22 13:33N 63°23' E 008°17'1010.0
2017-Feb-22 12:33N 63°15' E 008°04'1111.2
2017-Feb-22 11:34N 63°10' E 007°42'1110.9
2017-Feb-22 10:34N 63°03' E 007°23'2 1.7
2017-Feb-22 09:34N 63°03' E 007°27'0 0.0
2017-Feb-22 08:33N 63°03' E 007°27'6 6.2
2017-Feb-22 07:33N 63°02' E 007°13'1111.0
2017-Feb-22 06:33N 62°58' E 006°51'1110.7
2017-Feb-22 05:33N 62°49' E 006°38'1110.5
2017-Feb-22 04:34N 62°40' E 006°25'1110.7
2017-Feb-22 03:33N 62°32' E 006°10'4 3.9
2017-Feb-22 02:33N 62°29' E 006°14'0 0.0
2017-Feb-22 01:33N 62°29' E 006°14'0 0.0
2017-Feb-22 00:33N 62°29' E 006°14'0 0.0
2017-Feb-21 23:32N 62°29' E 006°14'0 0.0
2017-Feb-21 22:33N 62°29' E 006°14'0 0.0
2017-Feb-21 21:33N 62°29' E 006°14'0 0.0
2017-Feb-21 20:32N 62°29' E 006°14'0 0.0
2017-Feb-21 19:33N 62°29' E 006°14'2 2.2
2017-Feb-21 18:33N 62°31' E 006°12'6 6.3
2017-Feb-21 17:33N 62°32' E 006°26'5 5.2
2017-Feb-21 16:33N 62°31' E 006°15'1110.9
2017-Feb-21 15:34N 62°26' E 005°54'10 9.9
2017-Feb-21 14:33N 62°19' E 005°38'1010.2
2017-Feb-21 13:33N 62°16' E 005°17'9 9.3
2017-Feb-21 12:32N 62°09' E 005°04'10 9.8
2017-Feb-21 11:33N 61°59' E 005°10'3 2.8
2017-Feb-21 10:33N 61°57' E 005°08'0 0.0
2017-Feb-21 09:33N 61°57' E 005°08'0 0.0
2017-Feb-21 08:33N 61°57' E 005°08'5 5.0
2017-Feb-21 07:34N 61°52' E 005°13'8 7.9
2017-Feb-21 06:33N 61°46' E 005°03'9 8.9
2017-Feb-21 05:33N 61°37' E 004°59'9 8.9
2017-Feb-21 04:33N 61°29' E 004°59'9 9.0
2017-Feb-21 03:33N 61°20' E 005°03'7 7.2
2017-Feb-21 02:33N 61°13' E 004°57'9 8.8
2017-Feb-21 01:33N 61°05' E 005°01'3 3.0
2017-Feb-21 00:33N 61°02' E 005°01'0 0.2
2017-Feb-20 23:33N 61°01' E 005°01'1 0.6
2017-Feb-20 22:34N 61°01' E 005°00'0 0.0
2017-Feb-20 21:34N 61°01' E 005°00'0 0.0
2017-Feb-20 20:33N 61°01' E 005°00'0 0.0
2017-Feb-20 19:32N 61°01' E 005°00'0 0.0
2017-Feb-20 18:34N 61°01' E 005°00'0 0.0
2017-Feb-20 17:34N 61°01' E 005°00'0 0.0
2017-Feb-20 16:33N 61°01' E 005°00'0 0.0
2017-Feb-20 15:33N 61°01' E 005°00'0 0.0
2017-Feb-20 14:34N 61°01' E 005°00'0 0.0
2017-Feb-20 13:33N 61°01' E 005°00'0 0.0
2017-Feb-20 12:33N 61°01' E 005°00'0 0.0
2017-Feb-20 11:33N 61°01' E 005°00'0 0.1
2017-Feb-20 10:33N 61°01' E 005°00'0 0.0
2017-Feb-20 09:33N 61°01' E 005°00'0 0.0
2017-Feb-20 08:33N 61°01' E 005°00'0 0.0
2017-Feb-20 07:33N 61°01' E 005°00'1 0.5
2017-Feb-20 06:33N 61°01' E 005°01'6 6.3
2017-Feb-20 05:32N 60°60' E 004°48'10 9.8
2017-Feb-20 04:32N 60°50' E 004°45'10 9.6
2017-Feb-20 03:33N 60°41' E 004°51'1010.0
2017-Feb-20 02:33N 60°32' E 004°57'10 9.8
2017-Feb-20 01:33N 60°24' E 005°09'1110.8
2017-Feb-20 00:32N 60°13' E 005°10'1110.7
2017-Feb-19 23:33N 60°02' E 005°10'2 2.4
2017-Feb-19 22:33N 60°00' E 005°07'0 0.0
2017-Feb-19 21:33N 60°00' E 005°07'0 0.0
2017-Feb-19 20:33N 60°00' E 005°07'0 0.0
2017-Feb-19 19:33N 60°00' E 005°07'0 0.0
2017-Feb-19 18:33N 60°00' E 005°07'0 0.0
2017-Feb-19 17:33N 60°00' E 005°07'0 0.0
2017-Feb-19 16:33N 60°00' E 005°07'0 0.0
2017-Feb-19 15:33N 60°00' E 005°07'0 0.0
2017-Feb-19 14:33N 60°00' E 005°07'1 0.8
2017-Feb-19 13:33N 60°01' E 005°08'1 0.8
2017-Feb-19 12:33N 60°00' E 005°07'0 0.0
2017-Feb-19 11:33N 60°00' E 005°07'0 0.0
2017-Feb-19 10:33N 60°00' E 005°07'0 0.0
2017-Feb-19 09:33N 60°00' E 005°07'0 0.0
2017-Feb-19 08:33N 60°00' E 005°07'0 0.1
2017-Feb-19 07:33N 60°00' E 005°07'0 0.1
2017-Feb-19 06:33N 60°00' E 005°07'0 0.0
2017-Feb-19 05:33N 60°00' E 005°07'0 0.0
2017-Feb-19 04:33N 60°00' E 005°07'0 0.0
2017-Feb-19 03:33N 60°00' E 005°07'1 1.3
2017-Feb-19 02:33N 60°01' E 005°09'1 1.2
2017-Feb-19 01:33N 60°02' E 005°10'1010.0
2017-Feb-19 00:33N 60°12' E 005°10'9 9.1
2017-Feb-18 23:33N 60°21' E 005°10'9 9.0
2017-Feb-18 22:33N 60°29' E 004°60'9 9.5
2017-Feb-18 21:33N 60°38' E 004°53'10 9.6
2017-Feb-18 20:33N 60°47' E 004°46'7 6.9
2017-Feb-18 19:33N 60°51' E 004°57'7 7.4
2017-Feb-18 18:33N 60°58' E 005°00'3 3.4
2017-Feb-18 17:33N 61°02' E 005°01'1 0.6
2017-Feb-18 16:33N 61°01' E 005°00'0 0.1
2017-Feb-18 15:33N 61°01' E 005°00'0 0.0
2017-Feb-18 14:33N 61°01' E 005°00'0 0.0
2017-Feb-18 13:33N 61°01' E 005°00'1 0.6
2017-Feb-18 12:34N 61°01' E 005°01'1 0.9
2017-Feb-18 11:34N 60°60' E 005°02'0 0.0
2017-Feb-18 10:33N 60°60' E 005°02'0 0.0
2017-Feb-18 09:33N 60°60' E 005°02'0 0.1
2017-Feb-18 08:33N 60°60' E 005°02'0 0.0
2017-Feb-18 07:33N 60°60' E 005°02'4 4.0
2017-Feb-18 06:34N 61°04' E 005°01'9 9.0
2017-Feb-18 05:33N 61°13' E 004°59'7 6.8
2017-Feb-18 04:33N 61°19' E 005°04'9 9.4
2017-Feb-18 03:33N 61°28' E 004°59'9 9.0
2017-Feb-18 02:33N 61°37' E 004°59'9 8.9
2017-Feb-18 01:33N 61°46' E 005°02'9 8.8
2017-Feb-18 00:33N 61°52' E 005°16'7 7.1
2017-Feb-17 23:33N 61°58' E 005°09'10 9.9
2017-Feb-17 22:33N 62°08' E 005°05'9 8.5
2017-Feb-17 21:32N 62°15' E 005°15'10 9.9
2017-Feb-17 20:33N 62°18' E 005°35'9 9.0
2017-Feb-17 19:33N 62°24' E 005°49'1010.0
2017-Feb-17 18:33N 62°29' E 006°08'1010.1
2017-Feb-17 17:33N 62°38' E 006°20'1010.3
2017-Feb-17 16:33N 62°46' E 006°34'1010.4
2017-Feb-17 15:33N 62°54' E 006°46'9 9.1
2017-Feb-17 14:33N 63°00' E 007°02'9 9.4
2017-Feb-17 13:33N 63°03' E 007°22'2 2.1
2017-Feb-17 12:33N 63°03' E 007°27'0 0.0
2017-Feb-17 11:33N 63°03' E 007°27'0 0.0
2017-Feb-17 10:34N 63°03' E 007°27'0 0.0
2017-Feb-17 09:33N 63°03' E 007°27'0 0.0
2017-Feb-17 08:34N 63°03' E 007°27'0 0.0
2017-Feb-17 07:33N 63°03' E 007°27'0 0.0
2017-Feb-17 06:34N 63°03' E 007°27'0 0.0
2017-Feb-17 05:34N 63°03' E 007°27'0 0.1
2017-Feb-17 04:33N 63°03' E 007°27'5 5.2
2017-Feb-17 03:34N 63°07' E 007°35'10 9.6
2017-Feb-17 02:34N 63°14' E 007°50'2 1.7
2017-Feb-17 01:34N 63°15' E 007°51'5 5.1
2017-Feb-17 00:33N 63°11' E 007°46'1111.3
2017-Feb-16 23:34N 63°04' E 007°25'1111.1
2017-Feb-16 22:33N 63°00' E 007°02'1110.8
2017-Feb-16 21:33N 62°53' E 006°44'1111.1
2017-Feb-16 20:34N 62°44' E 006°31'1110.9
2017-Feb-16 19:33N 62°36' E 006°16'5 4.5
2017-Feb-16 18:33N 62°31' E 006°19'2 2.5
2017-Feb-16 17:33N 62°31' E 006°24'1 0.9
2017-Feb-16 16:33N 62°32' E 006°26'0 0.0
2017-Feb-16 15:32N 62°32' E 006°26'8 8.2
2017-Feb-16 14:33N 62°30' E 006°09'1010.4
2017-Feb-16 13:33N 62°24' E 005°49'9 9.3
2017-Feb-16 12:33N 62°18' E 005°34'1110.8
2017-Feb-16 11:34N 62°15' E 005°12'10 9.7
2017-Feb-16 10:33N 62°05' E 005°06'10 9.5
2017-Feb-16 09:33N 61°56' E 005°07'7 7.0
2017-Feb-16 08:33N 61°49' E 005°11'1010.1
2017-Feb-16 07:33N 61°41' E 004°58'1010.0
2017-Feb-16 06:33N 61°31' E 005°00'10 9.9
2017-Feb-16 05:33N 61°21' E 005°02'8 8.0
2017-Feb-16 04:33N 61°13' E 004°57'10 9.7
2017-Feb-16 03:33N 61°04' E 004°59'1010.1
2017-Feb-16 02:33N 60°56' E 004°46'1010.2
2017-Feb-16 01:33N 60°46' E 004°47'1111.3
2017-Feb-16 00:33N 60°35' E 004°55'1111.1
2017-Feb-15 23:33N 60°25' E 005°04'10 9.9
2017-Feb-15 22:33N 60°15' E 005°09'1010.5
2017-Feb-15 21:33N 60°05' E 005°11'5 5.2
2017-Feb-15 20:33N 60°00' E 005°07'0 0.0
2017-Feb-15 19:33N 60°00' E 005°07'0 0.0
2017-Feb-15 18:33N 60°00' E 005°07'0 0.0
2017-Feb-15 17:33N 60°00' E 005°07'0 0.0
2017-Feb-15 16:33N 60°00' E 005°07'0 0.0
2017-Feb-15 15:33N 60°00' E 005°07'4 4.3
2017-Feb-15 14:33N 60°04' E 005°10'1010.5
2017-Feb-15 13:34N 60°14' E 005°09'  
Track history (hours):
 
Tides and Currents Weather Stations Pressure Air Temp Water Temp Dewpoint Dewpoint Depression Visibility Wind Speed Wind Dir Waves Ship Positions

Hordafor III

Last reported at 2017-Feb-25 13:34 UTC. Time now 2017-Feb-25 13:54 UTC.
Position N 63°14' E 007°54'.

Length 50 m; draft 6 m.

Type: Cargo ship. MMSI: 258044000.

Date/timePositionNaut miles runAvg speedWind from/ knotsBaromVisibWave heightAir tempDewpointWater temp
2017-Feb-25 13:34N 63°14' E 007°54'1 1.4
2017-Feb-25 12:33N 63°15' E 007°51'0 0.1
2017-Feb-25 11:34N 63°15' E 007°51'0 0.2
2017-Feb-25 10:33N 63°15' E 007°51'0 0.1
2017-Feb-25 09:33N 63°15' E 007°51'0 0.0
2017-Feb-25 08:33N 63°15' E 007°51'0 0.0
2017-Feb-25 07:32N 63°15' E 007°51'0 0.0
2017-Feb-25 06:33N 63°15' E 007°51'0 0.0
2017-Feb-25 05:33N 63°15' E 007°51'0 0.0
2017-Feb-25 04:34N 63°15' E 007°51'0 0.0
2017-Feb-25 03:33N 63°15' E 007°51'0 0.0
2017-Feb-25 02:33N 63°15' E 007°51'0 0.0
2017-Feb-25 01:33N 63°15' E 007°51'1 0.8
2017-Feb-25 00:34N 63°15' E 007°52'1010.0
2017-Feb-24 23:33N 63°08' E 007°36'6 6.3
2017-Feb-24 22:33N 63°03' E 007°26'0 0.3
2017-Feb-24 21:34N 63°03' E 007°27'0 0.0
2017-Feb-24 20:34N 63°03' E 007°27'2 1.8
2017-Feb-24 19:34N 63°03' E 007°23'9 8.8
2017-Feb-24 18:33N 63°07' E 007°40'2 1.7
2017-Feb-24 17:34N 63°05' E 007°40'0 0.0
2017-Feb-24 16:33N 63°05' E 007°40'0 0.0
2017-Feb-24 15:33N 63°05' E 007°40'0 0.4
2017-Feb-24 14:34N 63°05' E 007°41'0 0.4
2017-Feb-24 13:33N 63°05' E 007°40'0 0.0
2017-Feb-24 12:34N 63°05' E 007°40'0 0.0
2017-Feb-24 11:33N 63°05' E 007°40'0 0.0
2017-Feb-24 10:33N 63°05' E 007°40'0 0.0
2017-Feb-24 09:34N 63°05' E 007°40'0 0.0
2017-Feb-24 08:34N 63°05' E 007°40'2 1.6
2017-Feb-24 07:34N 63°04' E 007°41'1 1.0
2017-Feb-24 06:34N 63°03' E 007°41'1 1.4
2017-Feb-24 05:33N 63°04' E 007°41'8 7.7
2017-Feb-24 04:33N 63°11' E 007°48'9 8.5
2017-Feb-24 03:33N 63°15' E 008°05'8 8.4
2017-Feb-24 02:33N 63°21' E 008°18'8 8.0
2017-Feb-24 01:33N 63°29' E 008°13'8 8.2
2017-Feb-24 00:33N 63°37' E 008°14'8 8.4
2017-Feb-23 23:33N 63°43' E 008°27'3 3.0
2017-Feb-23 22:34N 63°43' E 008°34'0 0.0
2017-Feb-23 21:33N 63°43' E 008°34'0 0.0
2017-Feb-23 20:33N 63°43' E 008°34'0 0.0
2017-Feb-23 19:33N 63°43' E 008°34'0 0.0
2017-Feb-23 18:33N 63°43' E 008°34'2 2.5
2017-Feb-23 17:33N 63°43' E 008°28'9 9.0
2017-Feb-23 16:33N 63°37' E 008°13'9 8.5
2017-Feb-23 15:33N 63°29' E 008°13'9 9.1
2017-Feb-23 14:33N 63°20' E 008°17'1010.6
2017-Feb-23 13:34N 63°14' E 007°58'1010.5
2017-Feb-23 12:34N 63°08' E 007°38'8 8.1
2017-Feb-23 11:33N 63°03' E 007°24'1 1.1
2017-Feb-23 10:33N 63°03' E 007°27'0 0.0
2017-Feb-23 09:33N 63°03' E 007°27'0 0.0
2017-Feb-23 08:34N 63°03' E 007°27'0 0.0
2017-Feb-23 07:33N 63°03' E 007°27'0 0.0
2017-Feb-23 06:34N 63°03' E 007°27'0 0.0
2017-Feb-23 05:34N 63°03' E 007°27'2 2.0
2017-Feb-23 04:34N 63°03' E 007°22'7 7.0
2017-Feb-23 03:33N 63°07' E 007°35'8 7.8
2017-Feb-23 02:34N 63°11' E 007°50'8 7.8
2017-Feb-23 01:32N 63°15' E 008°05'8 7.8
2017-Feb-23 00:33N 63°21' E 008°18'8 8.5
2017-Feb-22 23:33N 63°29' E 008°13'9 8.8
2017-Feb-22 22:33N 63°38' E 008°14'8 8.0
2017-Feb-22 21:33N 63°43' E 008°27'3 2.9
2017-Feb-22 20:33N 63°43' E 008°34'0 0.0
2017-Feb-22 19:33N 63°43' E 008°34'0 0.0
2017-Feb-22 18:33N 63°43' E 008°34'0 0.0
2017-Feb-22 17:34N 63°43' E 008°34'0 0.0
2017-Feb-22 16:33N 63°43' E 008°34'5 5.5
2017-Feb-22 15:33N 63°42' E 008°22'9 8.8
2017-Feb-22 14:33N 63°34' E 008°14'1110.7
2017-Feb-22 13:33N 63°23' E 008°17'1010.0
2017-Feb-22 12:33N 63°15' E 008°04'1111.2
2017-Feb-22 11:34N 63°10' E 007°42'1110.9
2017-Feb-22 10:34N 63°03' E 007°23'2 1.7
2017-Feb-22 09:34N 63°03' E 007°27'0 0.0
2017-Feb-22 08:33N 63°03' E 007°27'6 6.2
2017-Feb-22 07:33N 63°02' E 007°13'1111.0
2017-Feb-22 06:33N 62°58' E 006°51'1110.7
2017-Feb-22 05:33N 62°49' E 006°38'1110.5
2017-Feb-22 04:34N 62°40' E 006°25'1110.7
2017-Feb-22 03:33N 62°32' E 006°10'4 3.9
2017-Feb-22 02:33N 62°29' E 006°14'0 0.0
2017-Feb-22 01:33N 62°29' E 006°14'0 0.0
2017-Feb-22 00:33N 62°29' E 006°14'0 0.0
2017-Feb-21 23:32N 62°29' E 006°14'0 0.0
2017-Feb-21 22:33N 62°29' E 006°14'0 0.0
2017-Feb-21 21:33N 62°29' E 006°14'0 0.0
2017-Feb-21 20:32N 62°29' E 006°14'0 0.0
2017-Feb-21 19:33N 62°29' E 006°14'2 2.2
2017-Feb-21 18:33N 62°31' E 006°12'6 6.3
2017-Feb-21 17:33N 62°32' E 006°26'5 5.2
2017-Feb-21 16:33N 62°31' E 006°15'1110.9
2017-Feb-21 15:34N 62°26' E 005°54'10 9.9
2017-Feb-21 14:33N 62°19' E 005°38'1010.2
2017-Feb-21 13:33N 62°16' E 005°17'9 9.3
2017-Feb-21 12:32N 62°09' E 005°04'10 9.8
2017-Feb-21 11:33N 61°59' E 005°10'3 2.8
2017-Feb-21 10:33N 61°57' E 005°08'0 0.0
2017-Feb-21 09:33N 61°57' E 005°08'0 0.0
2017-Feb-21 08:33N 61°57' E 005°08'5 5.0
2017-Feb-21 07:34N 61°52' E 005°13'8 7.9
2017-Feb-21 06:33N 61°46' E 005°03'9 8.9
2017-Feb-21 05:33N 61°37' E 004°59'9 8.9
2017-Feb-21 04:33N 61°29' E 004°59'9 9.0
2017-Feb-21 03:33N 61°20' E 005°03'7 7.2
2017-Feb-21 02:33N 61°13' E 004°57'9 8.8
2017-Feb-21 01:33N 61°05' E 005°01'3 3.0
2017-Feb-21 00:33N 61°02' E 005°01'0 0.2
2017-Feb-20 23:33N 61°01' E 005°01'1 0.6
2017-Feb-20 22:34N 61°01' E 005°00'0 0.0
2017-Feb-20 21:34N 61°01' E 005°00'0 0.0
2017-Feb-20 20:33N 61°01' E 005°00'0 0.0
2017-Feb-20 19:32N 61°01' E 005°00'0 0.0
2017-Feb-20 18:34N 61°01' E 005°00'0 0.0
2017-Feb-20 17:34N 61°01' E 005°00'0 0.0
2017-Feb-20 16:33N 61°01' E 005°00'0 0.0
2017-Feb-20 15:33N 61°01' E 005°00'0 0.0
2017-Feb-20 14:34N 61°01' E 005°00'0 0.0
2017-Feb-20 13:33N 61°01' E 005°00'0 0.0
2017-Feb-20 12:33N 61°01' E 005°00'0 0.0
2017-Feb-20 11:33N 61°01' E 005°00'0 0.1
2017-Feb-20 10:33N 61°01' E 005°00'0 0.0
2017-Feb-20 09:33N 61°01' E 005°00'0 0.0
2017-Feb-20 08:33N 61°01' E 005°00'0 0.0
2017-Feb-20 07:33N 61°01' E 005°00'1 0.5
2017-Feb-20 06:33N 61°01' E 005°01'6 6.3
2017-Feb-20 05:32N 60°60' E 004°48'10 9.8
2017-Feb-20 04:32N 60°50' E 004°45'10 9.6
2017-Feb-20 03:33N 60°41' E 004°51'1010.0
2017-Feb-20 02:33N 60°32' E 004°57'10 9.8
2017-Feb-20 01:33N 60°24' E 005°09'1110.8
2017-Feb-20 00:32N 60°13' E 005°10'1110.7
2017-Feb-19 23:33N 60°02' E 005°10'2 2.4
2017-Feb-19 22:33N 60°00' E 005°07'0 0.0
2017-Feb-19 21:33N 60°00' E 005°07'0 0.0
2017-Feb-19 20:33N 60°00' E 005°07'0 0.0
2017-Feb-19 19:33N 60°00' E 005°07'0 0.0
2017-Feb-19 18:33N 60°00' E 005°07'0 0.0
2017-Feb-19 17:33N 60°00' E 005°07'0 0.0
2017-Feb-19 16:33N 60°00' E 005°07'0 0.0
2017-Feb-19 15:33N 60°00' E 005°07'0 0.0
2017-Feb-19 14:33N 60°00' E 005°07'1 0.8
2017-Feb-19 13:33N 60°01' E 005°08'1 0.8
2017-Feb-19 12:33N 60°00' E 005°07'0 0.0
2017-Feb-19 11:33N 60°00' E 005°07'0 0.0
2017-Feb-19 10:33N 60°00' E 005°07'0 0.0
2017-Feb-19 09:33N 60°00' E 005°07'0 0.0
2017-Feb-19 08:33N 60°00' E 005°07'0 0.1
2017-Feb-19 07:33N 60°00' E 005°07'0 0.1
2017-Feb-19 06:33N 60°00' E 005°07'0 0.0
2017-Feb-19 05:33N 60°00' E 005°07'0 0.0
2017-Feb-19 04:33N 60°00' E 005°07'0 0.0
2017-Feb-19 03:33N 60°00' E 005°07'1 1.3
2017-Feb-19 02:33N 60°01' E 005°09'1 1.2
2017-Feb-19 01:33N 60°02' E 005°10'1010.0
2017-Feb-19 00:33N 60°12' E 005°10'9 9.1
2017-Feb-18 23:33N 60°21' E 005°10'9 9.0
2017-Feb-18 22:33N 60°29' E 004°60'9 9.5
2017-Feb-18 21:33N 60°38' E 004°53'10 9.6
2017-Feb-18 20:33N 60°47' E 004°46'7 6.9
2017-Feb-18 19:33N 60°51' E 004°57'7 7.4
2017-Feb-18 18:33N 60°58' E 005°00'3 3.4
2017-Feb-18 17:33N 61°02' E 005°01'1 0.6
2017-Feb-18 16:33N 61°01' E 005°00'0 0.1
2017-Feb-18 15:33N 61°01' E 005°00'0 0.0
2017-Feb-18 14:33N 61°01' E 005°00'0 0.0
2017-Feb-18 13:33N 61°01' E 005°00'1 0.6
2017-Feb-18 12:34N 61°01' E 005°01'1 0.9
2017-Feb-18 11:34N 60°60' E 005°02'0 0.0
2017-Feb-18 10:33N 60°60' E 005°02'0 0.0
2017-Feb-18 09:33N 60°60' E 005°02'0 0.1
2017-Feb-18 08:33N 60°60' E 005°02'0 0.0
2017-Feb-18 07:33N 60°60' E 005°02'4 4.0
2017-Feb-18 06:34N 61°04' E 005°01'9 9.0
2017-Feb-18 05:33N 61°13' E 004°59'7 6.8
2017-Feb-18 04:33N 61°19' E 005°04'9 9.4
2017-Feb-18 03:33N 61°28' E 004°59'9 9.0
2017-Feb-18 02:33N 61°37' E 004°59'9 8.9
2017-Feb-18 01:33N 61°46' E 005°02'9 8.8
2017-Feb-18 00:33N 61°52' E 005°16'7 7.1
2017-Feb-17 23:33N 61°58' E 005°09'10 9.9
2017-Feb-17 22:33N 62°08' E 005°05'9 8.5
2017-Feb-17 21:32N 62°15' E 005°15'10 9.9
2017-Feb-17 20:33N 62°18' E 005°35'9 9.0
2017-Feb-17 19:33N 62°24' E 005°49'1010.0
2017-Feb-17 18:33N 62°29' E 006°08'1010.1
2017-Feb-17 17:33N 62°38' E 006°20'1010.3
2017-Feb-17 16:33N 62°46' E 006°34'1010.4
2017-Feb-17 15:33N 62°54' E 006°46'9 9.1
2017-Feb-17 14:33N 63°00' E 007°02'9 9.4
2017-Feb-17 13:33N 63°03' E 007°22'2 2.1
2017-Feb-17 12:33N 63°03' E 007°27'0 0.0
2017-Feb-17 11:33N 63°03' E 007°27'0 0.0
2017-Feb-17 10:34N 63°03' E 007°27'0 0.0
2017-Feb-17 09:33N 63°03' E 007°27'0 0.0
2017-Feb-17 08:34N 63°03' E 007°27'0 0.0
2017-Feb-17 07:33N 63°03' E 007°27'0 0.0
2017-Feb-17 06:34N 63°03' E 007°27'0 0.0
2017-Feb-17 05:34N 63°03' E 007°27'0 0.1
2017-Feb-17 04:33N 63°03' E 007°27'5 5.2
2017-Feb-17 03:34N 63°07' E 007°35'10 9.6
2017-Feb-17 02:34N 63°14' E 007°50'2 1.7
2017-Feb-17 01:34N 63°15' E 007°51'5 5.1
2017-Feb-17 00:33N 63°11' E 007°46'1111.3
2017-Feb-16 23:34N 63°04' E 007°25'1111.1
2017-Feb-16 22:33N 63°00' E 007°02'1110.8
2017-Feb-16 21:33N 62°53' E 006°44'1111.1
2017-Feb-16 20:34N 62°44' E 006°31'1110.9
2017-Feb-16 19:33N 62°36' E 006°16'5 4.5
2017-Feb-16 18:33N 62°31' E 006°19'2 2.5
2017-Feb-16 17:33N 62°31' E 006°24'1 0.9
2017-Feb-16 16:33N 62°32' E 006°26'0 0.0
2017-Feb-16 15:32N 62°32' E 006°26'8 8.2
2017-Feb-16 14:33N 62°30' E 006°09'1010.4
2017-Feb-16 13:33N 62°24' E 005°49'9 9.3
2017-Feb-16 12:33N 62°18' E 005°34'1110.8
2017-Feb-16 11:34N 62°15' E 005°12'10 9.7
2017-Feb-16 10:33N 62°05' E 005°06'10 9.5
2017-Feb-16 09:33N 61°56' E 005°07'7 7.0
2017-Feb-16 08:33N 61°49' E 005°11'1010.1
2017-Feb-16 07:33N 61°41' E 004°58'1010.0
2017-Feb-16 06:33N 61°31' E 005°00'10 9.9
2017-Feb-16 05:33N 61°21' E 005°02'8 8.0
2017-Feb-16 04:33N 61°13' E 004°57'10 9.7
2017-Feb-16 03:33N 61°04' E 004°59'1010.1
2017-Feb-16 02:33N 60°56' E 004°46'1010.2
2017-Feb-16 01:33N 60°46' E 004°47'1111.3
2017-Feb-16 00:33N 60°35' E 004°55'1111.1
2017-Feb-15 23:33N 60°25' E 005°04'10 9.9
2017-Feb-15 22:33N 60°15' E 005°09'1010.5
2017-Feb-15 21:33N 60°05' E 005°11'5 5.2
2017-Feb-15 20:33N 60°00' E 005°07'0 0.0
2017-Feb-15 19:33N 60°00' E 005°07'0 0.0
2017-Feb-15 18:33N 60°00' E 005°07'0 0.0
2017-Feb-15 17:33N 60°00' E 005°07'0 0.0
2017-Feb-15 16:33N 60°00' E 005°07'0 0.0
2017-Feb-15 15:33N 60°00' E 005°07'4 4.3
2017-Feb-15 14:33N 60°04' E 005°10'1010.5
2017-Feb-15 13:34N 60°14' E 005°09'  

Dump ship's entire track history